Terminal Aerodrome Forecast
Issued by NWS Paducah, KY

Home | Current Version | Previous Version | Text Only | Print | Product List | Glossary On
Versions: 1 2 3 4 5 6 7 8 9 10 11 12 13 14
000
FTUS43 KPAH 231720
TAFPAH
TAF
KPAH 231720Z 2318/2418 VRB05KT P6SM SCT025 BKN035
      TEMPO 2318/2320 BKN025
     FM232000 VRB05KT P6SM BKN040
     FM240100 VRB02KT P6SM SCT250
     FM240800 00000KT 4SM BR SKC
      TEMPO 2408/2412 2SM BR
     FM241400 20004KT P6SM SCT025=

USA.gov is the U.S. government's official web portal to all federal, state and local government web resources and services.